createdAt,value
2019-03-17T00:00:07.599Z,6.03
2019-03-17T00:02:42.892Z,6.80
2019-03-17T00:05:16.246Z,7.87
2019-03-17T00:07:47.863Z,6.83
2019-03-17T00:10:19.578Z,5.93
2019-03-17T00:12:51.526Z,6.20
2019-03-17T00:15:23.098Z,6.50
2019-03-17T00:17:55.827Z,4.97
2019-03-17T00:20:28.718Z,4.87
2019-03-17T00:23:02.548Z,5.53
2019-03-17T00:25:33.883Z,5.40
2019-03-17T00:28:05.392Z,5.27
2019-03-17T00:30:38.176Z,4.80
2019-03-17T00:33:10.587Z,4.80
2019-03-17T00:35:44.158Z,4.33
2019-03-17T00:38:17.294Z,4.63
2019-03-17T00:40:49.868Z,4.67
2019-03-17T00:43:21.427Z,4.30
2019-03-17T00:45:52.984Z,5.07
2019-03-17T00:48:24.450Z,4.33
2019-03-17T00:50:56.126Z,4.63
2019-03-17T00:53:28.345Z,4.10
2019-03-17T00:56:01.350Z,4.50
2019-03-17T00:58:33.334Z,4.57
2019-03-17T01:01:05.451Z,4.97
2019-03-17T01:03:38.758Z,4.77
2019-03-17T01:06:10.512Z,4.73
2019-03-17T01:08:43.806Z,5.40
2019-03-17T01:11:15.259Z,4.77
2019-03-17T01:13:46.871Z,4.33
2019-03-17T01:16:18.323Z,5.00
2019-03-17T01:18:51.302Z,4.50
2019-03-17T01:21:22.975Z,4.30
2019-03-17T01:23:54.422Z,4.80
2019-03-17T01:26:26.386Z,4.47
2019-03-17T01:28:58.355Z,4.73
2019-03-17T01:31:31.107Z,4.40
2019-03-17T01:34:02.930Z,4.37
2019-03-17T01:36:36.572Z,4.33
2019-03-17T01:39:09.315Z,4.20
2019-03-17T01:41:41.068Z,3.70
2019-03-17T01:44:14.769Z,4.00
2019-03-17T01:46:47.553Z,4.03
2019-03-17T01:49:19.128Z,3.63
2019-03-17T01:51:51.094Z,4.17
2019-03-17T01:54:23.759Z,3.80
2019-03-17T01:56:56.188Z,3.90
2019-03-17T01:59:28.266Z,4.20
2019-03-17T02:02:00.370Z,3.93
2019-03-17T02:04:33.413Z,4.10
2019-03-17T02:07:05.337Z,4.33
2019-03-17T02:09:37.545Z,4.77
2019-03-17T02:12:10.547Z,4.83
2019-03-17T02:14:43.134Z,4.60
2019-03-17T02:17:15.104Z,5.00
2019-03-17T02:19:46.542Z,5.13
2019-03-17T02:22:22.079Z,4.90
2019-03-17T02:24:52.377Z,5.27
2019-03-17T02:27:23.923Z,4.50
2019-03-17T02:29:55.357Z,5.00
2019-03-17T02:32:27.143Z,5.27
2019-03-17T02:34:59.365Z,4.80
2019-03-17T02:37:31.422Z,5.53
2019-03-17T02:40:04.459Z,5.50
2019-03-17T02:42:37.886Z,5.83
2019-03-17T02:45:10.808Z,5.93
2019-03-17T02:47:43.047Z,6.93
2019-03-17T02:50:16.784Z,6.47
2019-03-17T02:52:49.418Z,6.40
2019-03-17T02:55:21.268Z,6.03
2019-03-17T02:57:54.254Z,6.17
2019-03-17T03:00:26.502Z,6.67
2019-03-17T03:03:00.034Z,7.00
2019-03-17T03:05:31.489Z,7.40
2019-03-17T03:08:04.226Z,7.80
2019-03-17T03:10:35.852Z,7.13
2019-03-17T03:13:07.306Z,7.50
2019-03-17T03:15:39.935Z,7.77
2019-03-17T03:18:12.653Z,8.17
2019-03-17T03:20:45.853Z,8.87
2019-03-17T03:23:17.230Z,8.37
2019-03-17T03:25:48.728Z,8.63
2019-03-17T03:28:21.453Z,8.60
2019-03-17T03:30:53.860Z,9.17
2019-03-17T03:33:25.417Z,9.23
2019-03-17T03:36:09.928Z,9.73
2019-03-17T03:38:32.198Z,9.20
2019-03-17T03:41:05.372Z,9.93
2019-03-17T03:43:36.918Z,9.70
2019-03-17T03:46:09.945Z,10.03
2019-03-17T03:48:43.437Z,9.50
2019-03-17T03:51:14.824Z,10.63
2019-03-17T03:53:46.601Z,10.77
2019-03-17T03:56:18.397Z,10.10
2019-03-17T03:58:50.544Z,10.60
2019-03-17T04:01:22.022Z,10.30
2019-03-17T04:03:53.333Z,10.60
2019-03-17T04:06:27.267Z,11.20
2019-03-17T04:08:59.378Z,10.93
2019-03-17T04:11:32.107Z,10.97
2019-03-17T04:14:03.861Z,11.40
2019-03-17T04:16:35.178Z,10.53
2019-03-17T04:19:06.599Z,11.53
2019-03-17T04:21:38.679Z,12.03
2019-03-17T04:24:10.133Z,12.50
2019-03-17T04:26:42.068Z,12.17
2019-03-17T04:29:13.796Z,12.23
2019-03-17T04:31:46.439Z,12.40
2019-03-17T04:34:18.100Z,12.10
2019-03-17T04:36:50.613Z,13.50
2019-03-17T04:39:22.396Z,13.13
2019-03-17T04:41:54.399Z,13.90
2019-03-17T04:44:25.814Z,14.17
2019-03-17T04:46:57.285Z,13.97
2019-03-17T04:49:30.688Z,13.80
2019-03-17T04:52:02.609Z,14.23
2019-03-17T04:54:34.710Z,14.80
2019-03-17T04:57:06.106Z,14.30
2019-03-17T04:59:39.061Z,15.23
2019-03-17T05:02:13.639Z,14.80
2019-03-17T05:04:46.501Z,15.43
2019-03-17T05:07:18.362Z,15.33
2019-03-17T05:09:52.836Z,14.50
2019-03-17T05:12:26.425Z,15.63
2019-03-17T05:14:58.559Z,15.20
2019-03-17T05:17:30.394Z,15.27
2019-03-17T05:20:02.331Z,15.53
2019-03-17T05:22:35.575Z,15.03
2019-03-17T05:25:08.966Z,15.50
2019-03-17T05:27:40.443Z,16.60
2019-03-17T05:30:12.598Z,15.97
2019-03-17T05:32:45.101Z,15.40
2019-03-17T05:35:16.703Z,15.50
2019-03-17T05:37:49.572Z,16.40
2019-03-17T05:40:22.620Z,16.50
2019-03-17T05:42:55.136Z,16.07
2019-03-17T05:45:27.972Z,15.67
2019-03-17T05:47:59.575Z,16.77
2019-03-17T05:50:31.078Z,16.10
2019-03-17T05:53:02.547Z,17.37
2019-03-17T05:55:34.075Z,16.60
2019-03-17T05:58:07.076Z,17.30
2019-03-17T06:00:38.522Z,16.30
2019-03-17T06:03:10.457Z,16.13
2019-03-17T06:05:43.919Z,15.33
2019-03-17T06:08:16.317Z,15.97
2019-03-17T06:10:47.650Z,16.00
2019-03-17T06:13:19.932Z,15.97
2019-03-17T06:15:52.052Z,15.67
2019-03-17T06:18:24.594Z,13.50
2019-03-17T06:20:55.999Z,14.50
2019-03-17T06:23:27.482Z,14.77
2019-03-17T06:25:59.648Z,15.20
2019-03-17T06:28:31.046Z,14.83
2019-03-17T06:31:02.581Z,14.47
2019-03-17T06:33:35.219Z,14.27
2019-03-17T06:36:07.702Z,14.70
2019-03-17T06:38:39.853Z,16.87
2019-03-17T06:41:13.126Z,13.83
2019-03-17T06:43:45.492Z,14.27
2019-03-17T06:46:18.554Z,13.20
2019-03-17T06:48:52.128Z,12.43
2019-03-17T06:51:23.913Z,12.60
2019-03-17T06:53:56.877Z,12.60
2019-03-17T06:56:29.059Z,11.87
2019-03-17T06:59:00.816Z,12.30
2019-03-17T07:01:33.098Z,11.87
2019-03-17T07:04:06.121Z,10.77
2019-03-17T07:06:37.520Z,11.67
2019-03-17T07:09:08.882Z,11.10
2019-03-17T07:11:41.955Z,11.43
2019-03-17T07:14:13.539Z,11.13
2019-03-17T07:16:46.753Z,11.07
2019-03-17T07:19:18.332Z,9.73
2019-03-17T07:21:49.673Z,10.07
2019-03-17T07:24:21.040Z,9.73
2019-03-17T07:26:54.073Z,10.57
2019-03-17T07:29:27.325Z,10.30
2019-03-17T07:31:59.722Z,10.00
2019-03-17T07:34:31.603Z,9.27
2019-03-17T07:37:03.652Z,8.97
2019-03-17T07:39:35.074Z,9.60
2019-03-17T07:42:06.518Z,9.40
2019-03-17T07:44:37.817Z,9.53
2019-03-17T07:47:09.625Z,9.37
2019-03-17T07:49:42.717Z,8.47
2019-03-17T07:52:14.393Z,8.50
2019-03-17T07:54:46.259Z,8.93
2019-03-17T07:57:18.543Z,8.60
2019-03-17T07:59:50.396Z,8.80
2019-03-17T08:02:23.962Z,8.27
2019-03-17T08:04:56.284Z,7.43
2019-03-17T08:07:28.215Z,7.87
2019-03-17T08:10:01.416Z,7.57
2019-03-17T08:12:34.766Z,8.37
2019-03-17T08:15:07.113Z,6.43
2019-03-17T08:17:40.594Z,7.20
2019-03-17T08:20:14.561Z,7.40
2019-03-17T08:22:47.449Z,6.70
2019-03-17T08:25:19.232Z,6.30
2019-03-17T08:27:52.603Z,6.43
2019-03-17T08:30:24.193Z,6.53
2019-03-17T08:32:55.746Z,6.80
2019-03-17T08:35:28.739Z,6.53
2019-03-17T08:38:01.135Z,6.27
2019-03-17T08:40:32.830Z,7.07
2019-03-17T08:43:04.277Z,6.73
2019-03-17T08:45:35.582Z,6.30
2019-03-17T08:48:08.768Z,6.83
2019-03-17T08:50:41.488Z,6.77
2019-03-17T08:53:14.725Z,8.07
2019-03-17T08:55:47.750Z,6.57
2019-03-17T08:58:20.070Z,6.40
2019-03-17T09:00:52.760Z,6.13
2019-03-17T09:03:24.863Z,6.90
2019-03-17T09:05:57.642Z,5.47
2019-03-17T09:08:35.220Z,5.77
2019-03-17T09:11:04.530Z,5.83
2019-03-17T09:13:36.861Z,5.90
2019-03-17T09:16:09.992Z,5.30
2019-03-17T09:18:41.412Z,5.63
2019-03-17T09:21:14.235Z,6.43
2019-03-17T09:23:47.455Z,5.30
2019-03-17T09:26:19.224Z,6.00
2019-03-17T09:28:51.918Z,5.60
2019-03-17T09:31:23.295Z,5.30
2019-03-17T09:33:55.124Z,5.57
2019-03-17T09:36:26.921Z,4.67
2019-03-17T09:39:00.495Z,4.50
2019-03-17T09:41:35.126Z,4.53
2019-03-17T09:44:07.428Z,5.13
2019-03-17T09:46:40.359Z,5.33
2019-03-17T09:49:13.750Z,4.90
2019-03-17T09:51:46.745Z,4.37
2019-03-17T09:54:26.933Z,4.30
2019-03-17T09:57:00.286Z,4.43
2019-03-17T09:59:32.354Z,4.10
2019-03-17T10:02:05.361Z,4.87
2019-03-17T10:04:38.530Z,4.67
2019-03-17T10:07:10.571Z,4.77
2019-03-17T10:09:41.923Z,4.80
2019-03-17T10:12:14.980Z,4.27
2019-03-17T10:14:47.994Z,3.70
2019-03-17T10:17:19.591Z,4.40
2019-03-17T10:19:51.333Z,4.67
2019-03-17T10:22:23.920Z,5.13
2019-03-17T10:24:55.681Z,5.03
2019-03-17T10:27:27.431Z,4.00
2019-03-17T10:29:59.271Z,4.60
2019-03-17T10:32:31.473Z,3.80
2019-03-17T10:35:04.671Z,3.90
2019-03-17T10:37:36.043Z,3.80
2019-03-17T10:40:09.805Z,4.10
2019-03-17T10:42:41.852Z,4.47
2019-03-17T10:45:14.987Z,4.40
2019-03-17T10:47:47.166Z,4.67
2019-03-17T10:50:19.592Z,4.20
2019-03-17T10:52:51.261Z,3.90
2019-03-17T10:55:23.046Z,3.50
2019-03-17T10:57:56.516Z,4.70
2019-03-17T11:00:29.505Z,4.77
2019-03-17T11:03:02.904Z,4.10
2019-03-17T11:05:34.611Z,4.20
2019-03-17T11:08:07.726Z,4.10
2019-03-17T11:10:39.309Z,4.03
2019-03-17T11:13:10.921Z,3.70
2019-03-17T11:15:44.355Z,3.80
2019-03-17T11:18:15.759Z,3.70
2019-03-17T11:20:49.389Z,3.73
2019-03-17T11:23:22.421Z,3.93
2019-03-17T11:25:54.439Z,4.00
2019-03-17T11:28:26.031Z,3.67
2019-03-17T11:31:01.151Z,3.77
2019-03-17T11:33:32.560Z,3.93
2019-03-17T11:36:04.647Z,4.47
2019-03-17T11:38:37.704Z,3.27
2019-03-17T11:41:09.664Z,3.40
2019-03-17T11:43:42.782Z,4.07
2019-03-17T11:46:15.847Z,4.10
2019-03-17T11:48:48.145Z,3.40
2019-03-17T11:51:20.357Z,3.63
2019-03-17T11:53:52.255Z,3.63
2019-03-17T11:56:24.265Z,3.90
2019-03-17T11:58:55.641Z,4.27
2019-03-17T12:01:27.814Z,4.10
2019-03-17T12:04:01.339Z,3.97
2019-03-17T12:06:34.650Z,4.00
2019-03-17T12:09:08.482Z,3.30
2019-03-17T12:11:40.941Z,3.43
2019-03-17T12:14:12.458Z,3.80
2019-03-17T12:16:45.240Z,3.73
2019-03-17T12:19:18.783Z,3.70
2019-03-17T12:21:51.694Z,3.50
2019-03-17T12:24:24.107Z,3.60
2019-03-17T12:26:55.921Z,3.40
2019-03-17T12:29:28.441Z,3.50
2019-03-17T12:32:01.515Z,3.20
2019-03-17T12:34:33.562Z,3.60
2019-03-17T12:37:06.196Z,3.40
2019-03-17T12:39:40.373Z,3.20
2019-03-17T12:42:12.146Z,3.00
2019-03-17T12:44:43.528Z,3.27
2019-03-17T12:47:15.229Z,3.40
2019-03-17T12:49:47.106Z,2.93
2019-03-17T12:52:19.288Z,2.87
2019-03-17T12:54:50.739Z,2.97
2019-03-17T12:57:22.465Z,3.00
2019-03-17T12:59:56.138Z,3.67
2019-03-17T13:02:28.888Z,2.90
2019-03-17T13:05:01.231Z,2.97
2019-03-17T13:07:34.293Z,3.20
2019-03-17T13:10:15.631Z,3.23
2019-03-17T13:12:43.206Z,2.67
2019-03-17T13:15:14.658Z,3.00
2019-03-17T13:17:46.915Z,3.07
2019-03-17T13:20:20.006Z,3.13
2019-03-17T13:22:53.208Z,3.33
2019-03-17T13:25:26.080Z,2.97
2019-03-17T13:27:59.504Z,3.10
2019-03-17T13:30:32.278Z,3.13
2019-03-17T13:33:04.995Z,3.30
2019-03-17T13:35:37.492Z,3.10
2019-03-17T13:38:09.358Z,2.87
2019-03-17T13:40:43.956Z,3.30
2019-03-17T13:43:16.959Z,2.80
2019-03-17T13:45:49.253Z,3.03
2019-03-17T13:48:22.211Z,2.90
2019-03-17T13:50:55.261Z,3.20
2019-03-17T13:53:26.775Z,3.20
2019-03-17T13:56:00.451Z,3.07
2019-03-17T13:58:32.529Z,3.43
2019-03-17T14:01:03.999Z,2.83
2019-03-17T14:03:37.069Z,2.80
2019-03-17T14:06:08.606Z,2.57
2019-03-17T14:08:40.536Z,2.80
2019-03-17T14:11:12.257Z,2.70
2019-03-17T14:13:45.499Z,3.43
2019-03-17T14:16:16.819Z,3.00
2019-03-17T14:18:49.037Z,3.70
2019-03-17T14:21:20.974Z,2.90
2019-03-17T14:23:53.352Z,2.70
2019-03-17T14:26:25.222Z,2.70
2019-03-17T14:28:57.481Z,2.67
2019-03-17T14:31:30.299Z,2.90
2019-03-17T14:34:02.865Z,2.73
2019-03-17T14:36:34.369Z,3.07
2019-03-17T14:39:07.943Z,3.13
2019-03-17T14:41:40.179Z,3.77
2019-03-17T14:44:12.076Z,3.17
2019-03-17T14:46:45.590Z,3.20
2019-03-17T14:49:17.994Z,3.07
2019-03-17T14:51:50.123Z,3.37
2019-03-17T14:54:22.224Z,2.83
2019-03-17T14:56:54.277Z,2.73
2019-03-17T14:59:27.341Z,3.13
2019-03-17T15:02:00.630Z,3.40
2019-03-17T15:04:33.763Z,3.30
2019-03-17T15:07:05.387Z,3.23
2019-03-17T15:09:38.402Z,3.07
2019-03-17T15:12:13.391Z,2.93
2019-03-17T15:14:46.576Z,3.23
2019-03-17T15:17:18.758Z,3.60
2019-03-17T15:19:51.979Z,3.70
2019-03-17T15:22:24.074Z,3.30
2019-03-17T15:24:56.202Z,3.13
2019-03-17T15:27:29.941Z,3.67
2019-03-17T15:30:02.233Z,3.23
2019-03-17T15:32:35.692Z,3.53
2019-03-17T15:35:09.987Z,3.37
2019-03-17T15:37:43.749Z,3.30
2019-03-17T15:40:15.770Z,3.50
2019-03-17T15:42:47.857Z,3.30
2019-03-17T15:45:19.809Z,3.27
2019-03-17T15:47:53.382Z,2.90
2019-03-17T15:50:24.873Z,3.27
2019-03-17T15:52:57.215Z,3.10
2019-03-17T15:55:31.319Z,2.90
2019-03-17T15:58:05.242Z,2.53
2019-03-17T16:00:37.408Z,2.60
2019-03-17T16:03:10.458Z,3.20
2019-03-17T16:05:43.902Z,3.10
2019-03-17T16:08:16.954Z,2.80
2019-03-17T16:10:49.781Z,2.80
2019-03-17T16:13:22.210Z,2.57
2019-03-17T16:15:55.311Z,2.97
2019-03-17T16:18:28.643Z,2.90
2019-03-17T16:21:02.627Z,3.00
2019-03-17T16:23:35.871Z,2.93
2019-03-17T16:26:08.861Z,2.70
2019-03-17T16:28:41.872Z,3.40
2019-03-17T16:31:14.347Z,3.40
2019-03-17T16:33:47.369Z,2.40
2019-03-17T16:36:21.229Z,1.30
2019-03-17T16:38:54.297Z,2.07
2019-03-17T16:41:27.385Z,1.73
2019-03-17T16:44:00.496Z,1.53
2019-03-17T16:46:33.295Z,1.63
2019-03-17T16:49:05.827Z,2.07
2019-03-17T16:51:38.913Z,2.20
2019-03-17T16:54:10.896Z,1.23
2019-03-17T16:56:42.677Z,1.93
2019-03-17T16:59:14.200Z,2.80
2019-03-17T17:01:47.205Z,2.80
2019-03-17T17:04:20.201Z,2.33
2019-03-17T17:06:51.984Z,2.43
2019-03-17T17:09:24.122Z,2.50
2019-03-17T17:11:57.538Z,2.60
2019-03-17T17:14:30.828Z,3.70
2019-03-17T17:17:03.331Z,5.80
2019-03-17T17:19:36.318Z,3.10
2019-03-17T17:22:08.436Z,18.37
2019-03-17T17:24:42.907Z,15.60
2019-03-17T17:27:16.372Z,7.07
2019-03-17T17:29:48.280Z,3.67
2019-03-17T17:32:20.087Z,5.33
2019-03-17T17:34:53.594Z,3.40
2019-03-17T17:37:25.484Z,2.40
2019-03-17T17:39:57.228Z,3.03
2019-03-17T17:42:30.040Z,3.40
2019-03-17T17:45:03.000Z,3.07
2019-03-17T17:47:35.264Z,3.17
2019-03-17T17:50:09.481Z,3.93
2019-03-17T17:52:42.630Z,2.87
2019-03-17T17:55:15.654Z,3.33
2019-03-17T17:57:48.547Z,3.20
2019-03-17T18:00:22.134Z,2.97
2019-03-17T18:02:55.030Z,3.07
2019-03-17T18:05:28.834Z,2.03
2019-03-17T18:08:02.075Z,2.00
2019-03-17T18:10:35.172Z,2.50
2019-03-17T18:13:08.811Z,2.20
2019-03-17T18:15:41.843Z,1.80
2019-03-17T18:18:14.781Z,2.20
2019-03-17T18:20:47.761Z,1.70
2019-03-17T18:23:19.206Z,2.17
2019-03-17T18:25:52.611Z,2.43
2019-03-17T18:28:24.688Z,2.33
2019-03-17T18:30:57.667Z,2.10
2019-03-17T18:33:29.801Z,3.07
2019-03-17T18:36:03.249Z,2.70
2019-03-17T18:38:36.600Z,2.60
2019-03-17T18:41:09.350Z,3.03
2019-03-17T18:43:41.413Z,3.37
2019-03-17T18:46:14.886Z,3.83
2019-03-17T18:48:47.916Z,3.27
2019-03-17T18:51:21.086Z,3.23
2019-03-17T18:53:54.507Z,3.13
2019-03-17T18:56:25.891Z,2.80
2019-03-17T18:58:57.501Z,3.40
2019-03-17T19:01:29.958Z,3.70
2019-03-17T19:04:02.698Z,3.73
2019-03-17T19:06:34.164Z,3.30
2019-03-17T19:09:08.065Z,3.63
2019-03-17T19:11:39.347Z,3.00
2019-03-17T19:14:12.418Z,3.47
2019-03-17T19:16:46.433Z,3.30
2019-03-17T19:19:18.219Z,3.37
2019-03-17T19:21:49.598Z,2.80
2019-03-17T19:24:22.638Z,3.13
2019-03-17T19:26:55.985Z,3.57
2019-03-17T19:29:29.083Z,3.70
2019-03-17T19:32:02.356Z,3.43
2019-03-17T19:34:35.505Z,3.53
2019-03-17T19:37:06.990Z,3.00
2019-03-17T19:39:40.040Z,3.37
2019-03-17T19:42:12.723Z,3.80
2019-03-17T19:44:45.962Z,5.30
2019-03-17T19:47:17.979Z,4.57
2019-03-17T19:49:49.341Z,4.30
2019-03-17T19:52:21.770Z,3.97
2019-03-17T19:54:53.720Z,4.70
2019-03-17T19:57:25.506Z,4.00
2019-03-17T19:59:57.096Z,3.50
2019-03-17T20:02:30.306Z,4.00
2019-03-17T20:05:03.313Z,3.97
2019-03-17T20:07:34.648Z,4.00
2019-03-17T20:10:09.881Z,3.73
2019-03-17T20:12:41.822Z,4.20
2019-03-17T20:15:14.759Z,4.17
2019-03-17T20:17:47.971Z,3.97
2019-03-17T20:20:20.040Z,3.53
2019-03-17T20:22:53.295Z,3.83
2019-03-17T20:25:26.386Z,3.83
2019-03-17T20:27:59.688Z,3.83
2019-03-17T20:30:31.469Z,4.43
2019-03-17T20:33:05.002Z,3.80
2019-03-17T20:35:38.044Z,3.50
2019-03-17T20:38:09.559Z,3.87
2019-03-17T20:40:43.201Z,3.70
2019-03-17T20:43:29.079Z,3.80
2019-03-17T20:45:49.619Z,3.43
2019-03-17T20:48:22.686Z,3.60
2019-03-17T20:50:59.136Z,3.70
2019-03-17T20:53:31.641Z,3.53
2019-03-17T20:56:03.300Z,3.00
2019-03-17T20:58:35.480Z,3.00
2019-03-17T21:01:07.300Z,2.50
2019-03-17T21:03:40.503Z,2.67
2019-03-17T21:06:12.511Z,2.93
2019-03-17T21:08:45.846Z,3.33
2019-03-17T21:11:17.419Z,2.80
2019-03-17T21:13:50.416Z,3.53
2019-03-17T21:16:23.412Z,3.30
2019-03-17T21:18:55.845Z,2.83
2019-03-17T21:21:27.293Z,3.70
2019-03-17T21:24:00.488Z,2.80
2019-03-17T21:26:33.812Z,3.50
2019-03-17T21:29:06.785Z,2.87
2019-03-17T21:31:39.887Z,3.53
2019-03-17T21:34:11.358Z,3.40
2019-03-17T21:36:44.125Z,3.27
2019-03-17T21:39:18.787Z,3.07
2019-03-17T21:41:50.137Z,3.33
2019-03-17T21:44:23.279Z,2.67
2019-03-17T21:46:57.307Z,3.97
2019-03-17T21:49:30.570Z,3.40
2019-03-17T21:52:03.668Z,3.00
2019-03-17T21:54:36.710Z,3.47
2019-03-17T21:57:08.081Z,3.13
2019-03-17T21:59:39.658Z,4.00
2019-03-17T22:02:13.040Z,3.67
2019-03-17T22:04:45.507Z,3.87
2019-03-17T22:07:19.659Z,3.63
2019-03-17T22:09:53.286Z,3.53
2019-03-17T22:12:25.190Z,3.80
2019-03-17T22:14:57.851Z,4.03
2019-03-17T22:17:31.061Z,4.23
2019-03-17T22:20:02.763Z,3.80
2019-03-17T22:22:35.752Z,4.33
2019-03-17T22:25:09.304Z,4.10
2019-03-17T22:27:42.664Z,4.37
2019-03-17T22:30:14.287Z,4.40
2019-03-17T22:32:47.294Z,4.00
2019-03-17T22:35:20.995Z,4.13
2019-03-17T22:37:53.926Z,4.13
2019-03-17T22:40:27.821Z,4.33
2019-03-17T22:43:01.528Z,4.20
2019-03-17T22:45:34.687Z,4.33
2019-03-17T22:48:07.648Z,4.20
2019-03-17T22:50:46.072Z,4.30
2019-03-17T22:53:19.211Z,4.70
2019-03-17T22:56:00.457Z,4.03
2019-03-17T22:58:32.579Z,3.80
2019-03-17T23:01:06.432Z,4.23
2019-03-17T23:03:38.239Z,4.47
2019-03-17T23:06:10.528Z,4.03
2019-03-17T23:08:43.062Z,4.10
2019-03-17T23:11:15.334Z,4.53
2019-03-17T23:13:49.285Z,3.80
2019-03-17T23:16:22.459Z,4.60
2019-03-17T23:18:56.195Z,4.23
2019-03-17T23:21:28.940Z,4.10
2019-03-17T23:24:02.056Z,4.17
2019-03-17T23:26:35.306Z,3.90
2019-03-17T23:29:08.550Z,4.10
2019-03-17T23:31:40.726Z,3.83
2019-03-17T23:34:13.988Z,3.70
2019-03-17T23:36:45.856Z,4.70
2019-03-17T23:39:19.117Z,3.80
2019-03-17T23:41:52.413Z,4.27
2019-03-17T23:44:24.325Z,3.70
2019-03-17T23:46:56.077Z,4.77
2019-03-17T23:49:29.983Z,3.73
2019-03-17T23:52:03.761Z,4.00
2019-03-17T23:54:37.079Z,3.93
2019-03-17T23:57:10.335Z,3.50
2019-03-17T23:59:44.385Z,3.83
